Time;durP1;ratioP1;P1;durP2;ratioP2;P2;SDS_P1;SDS_P2;PMS_P1;PMS_P2;Temp;Humidity;BMP_temperature;BMP_pressure;BME280_temperature;BME280_humidity;BME280_pressure;Samples;Min_cycle;Max_cycle;Signal;HPM_P1;HPM_P2
2022/07/05 00:01:14;;;;;;;3.03;0.63;;;14.00;68.20;;;;;;5095375;28;20059;-77
2022/07/05 00:03:42;;;;;;;2.08;0.68;;;14.10;68.30;;;;;;5095289;28;20099;-76
2022/07/05 00:06:10;;;;;;;3.47;0.88;;;14.00;68.20;;;;;;5095249;28;20389;-76
2022/07/05 00:08:39;;;;;;;1.80;0.85;;;14.00;68.20;;;;;;5095123;28;20170;-77
2022/07/05 00:11:06;;;;;;;3.03;0.80;;;14.00;68.10;;;;;;5095126;28;20389;-77
2022/07/05 00:13:34;;;;;;;2.42;0.68;;;14.00;68.20;;;;;;5095133;28;20055;-77
2022/07/05 00:16:01;;;;;;;4.30;0.95;;;14.00;68.20;;;;;;5095446;28;20048;-77
2022/07/05 00:18:29;;;;;;;2.97;0.77;;;14.00;68.30;;;;;;5095021;28;20052;-76
2022/07/05 00:20:57;;;;;;;4.10;1.00;;;14.00;68.20;;;;;;5093957;28;20390;-77
2022/07/05 00:23:24;;;;;;;2.72;0.90;;;14.00;68.30;;;;;;5094630;28;20048;-77
2022/07/05 00:25:52;;;;;;;6.70;1.00;;;14.00;68.60;;;;;;5094175;28;20405;-77
2022/07/05 00:28:20;;;;;;;2.97;1.00;;;14.00;68.70;;;;;;5094769;28;20058;-77
2022/07/05 00:30:48;;;;;;;1.20;0.52;;;13.90;68.80;;;;;;5093991;28;20066;-77
2022/07/05 00:33:15;;;;;;;2.30;0.90;;;13.90;68.90;;;;;;5076834;28;20052;-77
2022/07/05 00:35:43;;;;;;;1.15;0.70;;;13.90;69.10;;;;;;5094762;28;20473;-77
2022/07/05 00:38:11;;;;;;;4.68;0.90;;;13.90;69.10;;;;;;5094473;28;20048;-76
2022/07/05 00:40:38;;;;;;;2.33;0.93;;;13.90;69.20;;;;;;5076544;28;20048;-76
2022/07/05 00:43:06;;;;;;;1.55;0.60;;;13.80;69.40;;;;;;5076815;28;20065;-76
2022/07/05 00:45:33;;;;;;;2.55;0.85;;;13.80;69.40;;;;;;5093912;28;20051;-76
2022/07/05 00:48:01;;;;;;;2.92;0.80;;;13.80;69.50;;;;;;5094258;28;20047;-77
2022/07/05 00:50:29;;;;;;;1.42;0.52;;;13.80;69.60;;;;;;5094303;28;20070;-77
2022/07/05 00:52:57;;;;;;;1.35;0.65;;;13.80;69.80;;;;;;5075351;28;20048;-77
2022/07/05 00:55:25;;;;;;;2.03;0.70;;;13.80;70.00;;;;;;5075914;28;20052;-77
2022/07/05 00:57:54;;;;;;;3.80;1.05;;;13.80;70.00;;;;;;5093672;28;20408;-77
2022/07/05 01:00:22;;;;;;;3.55;0.98;;;13.80;70.20;;;;;;5094226;28;20397;-77
2022/07/05 01:02:50;;;;;;;3.70;0.88;;;13.80;70.50;;;;;;5094270;28;20051;-77
2022/07/05 01:05:18;;;;;;;5.35;1.10;;;13.70;70.70;;;;;;5075463;28;20044;-77
2022/07/05 01:07:46;;;;;;;2.33;0.60;;;13.70;70.80;;;;;;5075066;28;20048;-77
2022/07/05 01:10:14;;;;;;;2.88;0.80;;;13.70;71.00;;;;;;5096517;28;20040;-77
2022/07/05 01:12:42;;;;;;;2.40;0.80;;;13.60;71.10;;;;;;5095715;28;20067;-77
2022/07/05 01:15:10;;;;;;;1.02;0.60;;;13.50;71.20;;;;;;5093482;28;20504;-76
2022/07/05 01:17:38;;;;;;;5.47;0.70;;;13.50;71.70;;;;;;5075162;28;20048;-76
2022/07/05 01:20:07;;;;;;;6.60;0.95;;;13.40;71.80;;;;;;5075808;28;20040;-76
2022/07/05 01:22:53;;;;;;;4.05;0.63;;;13.30;72.00;;;;;;5075512;28;20043;-77
2022/07/05 01:25:23;;;;;;;3.45;0.90;;;13.30;72.40;;;;;;5075359;28;20067;-77
2022/07/05 01:27:51;;;;;;;3.88;0.90;;;13.30;72.40;;;;;;5092964;28;20059;-78
2022/07/05 01:30:19;;;;;;;5.43;1.00;;;13.30;72.50;;;;;;5075444;28;20048;-77
2022/07/05 01:32:47;;;;;;;3.80;0.82;;;13.30;72.80;;;;;;5075842;28;20036;-77
2022/07/05 01:35:23;;;;;;;3.90;0.90;;;13.20;72.80;;;;;;5074666;28;20055;-77
2022/07/05 01:37:52;;;;;;;3.70;0.95;;;13.20;72.90;;;;;;5075377;28;20044;-78
2022/07/05 01:40:20;;;;;;;2.15;0.93;;;13.20;72.90;;;;;;5093550;28;20051;-77
2022/07/05 01:42:48;;;;;;;6.05;1.17;;;13.20;73.20;;;;;;5092349;28;20060;-77
2022/07/05 01:48:11;;;;;;;3.05;1.10;;;13.20;73.70;;;;;;5092649;28;20055;-76
2022/07/05 01:51:07;;;;;;;3.47;1.00;;;13.20;73.70;;;;;;5092070;28;20524;-77
2022/07/05 01:53:38;;;;;;;1.80;0.90;;;13.20;73.60;;;;;;5092824;28;20478;-77
2022/07/05 01:56:06;;;;;;;2.38;0.95;;;13.20;73.60;;;;;;5058354;28;20416;-78
2022/07/05 01:58:35;;;;;;;2.20;1.05;;;13.30;73.80;;;;;;5075177;28;20044;-76
2022/07/05 02:01:03;;;;;;;2.92;1.20;;;13.20;73.80;;;;;;5093171;28;20059;-78
2022/07/05 02:03:31;;;;;;;5.35;1.08;;;13.20;73.90;;;;;;5092832;28;20079;-77
2022/07/05 02:06:18;;;;;;;4.15;0.88;;;13.20;73.90;;;;;;5074722;28;20044;-77
2022/07/05 02:08:46;;;;;;;3.92;1.27;;;13.20;74.00;;;;;;5074678;28;20047;-77
2022/07/05 02:11:14;;;;;;;2.28;1.00;;;13.20;74.10;;;;;;5074832;28;20044;-77
2022/07/05 02:13:42;;;;;;;2.00;0.90;;;13.20;74.20;;;;;;5074142;28;20052;-77
2022/07/05 02:16:10;;;;;;;2.47;1.10;;;13.20;74.10;;;;;;5074640;28;20402;-77
2022/07/05 02:18:38;;;;;;;3.63;0.93;;;13.20;74.20;;;;;;5073921;28;20052;-77
2022/07/05 02:21:06;;;;;;;3.40;1.00;;;13.20;74.10;;;;;;5074543;28;20047;-77
2022/07/05 02:23:33;;;;;;;3.03;0.95;;;13.20;74.20;;;;;;5092806;28;20052;-77
2022/07/05 02:26:04;;;;;;;3.83;1.13;;;13.20;74.20;;;;;;5073373;28;20051;-77
2022/07/05 02:28:31;;;;;;;2.15;0.93;;;13.20;74.30;;;;;;5074549;28;20040;-77
2022/07/05 02:30:59;;;;;;;3.10;1.20;;;13.20;74.40;;;;;;5074577;28;20044;-77
2022/07/05 02:33:27;;;;;;;4.25;1.20;;;13.20;74.50;;;;;;5074691;28;20048;-77
2022/07/05 02:35:55;;;;;;;3.20;1.13;;;13.20;74.60;;;;;;5074703;28;20043;-77
2022/07/05 02:38:23;;;;;;;6.63;1.10;;;13.20;74.70;;;;;;5091401;28;20044;-76
2022/07/05 02:40:51;;;;;;;4.40;0.98;;;13.10;74.80;;;;;;5073899;28;20059;-77
2022/07/05 02:43:19;;;;;;;3.30;1.20;;;13.10;74.90;;;;;;5073725;28;20052;-78
2022/07/05 02:45:48;;;;;;;5.22;1.10;;;13.10;75.00;;;;;;5069741;28;20067;-76
2022/07/05 02:48:16;;;;;;;2.47;1.17;;;13.10;75.10;;;;;;5050706;28;20060;-77
2022/07/05 02:50:45;;;;;;;6.55;0.93;;;13.10;75.10;;;;;;5050952;28;20449;-77
2022/07/05 02:53:13;;;;;;;3.90;1.08;;;13.00;75.10;;;;;;5052308;28;20074;-77
2022/07/05 02:55:41;;;;;;;3.97;1.08;;;13.10;75.10;;;;;;5050829;28;20053;-76
2022/07/05 02:58:09;;;;;;;5.95;0.95;;;13.10;75.10;;;;;;5051008;28;20033;-77
2022/07/05 03:00:37;;;;;;;4.72;1.40;;;13.10;75.10;;;;;;5050841;28;20069;-77
2022/07/05 03:03:05;;;;;;;4.22;1.27;;;13.10;75.10;;;;;;5050867;28;20056;-77
2022/07/05 03:05:33;;;;;;;7.85;1.40;;;13.10;75.10;;;;;;5034071;28;20061;-77
2022/07/05 03:08:03;;;;;;;4.70;1.20;;;13.10;75.10;;;;;;5050259;28;20060;-77
2022/07/05 03:10:35;;;;;;;3.92;1.13;;;13.10;75.10;;;;;;5050462;28;20044;-76
2022/07/05 03:13:06;;;;;;;5.78;1.10;;;13.10;75.10;;;;;;5050633;28;20401;-78
2022/07/05 03:15:34;;;;;;;2.63;1.02;;;13.20;75.30;;;;;;5050699;28;20053;-77
2022/07/05 03:18:02;;;;;;;2.83;1.15;;;13.10;75.20;;;;;;5050690;28;20055;-75
2022/07/05 03:20:31;;;;;;;7.38;1.27;;;13.10;75.30;;;;;;5050701;28;20048;-75
2022/07/05 03:22:59;;;;;;;6.88;1.27;;;13.00;75.30;;;;;;5050175;28;20398;-76
2022/07/05 03:25:36;;;;;;;6.47;0.98;;;13.00;75.50;;;;;;5050559;28;20049;-77
2022/07/05 03:28:05;;;;;;;2.05;1.13;;;13.00;75.60;;;;;;5051860;28;20053;-77
2022/07/05 03:30:33;;;;;;;4.55;1.08;;;13.00;75.70;;;;;;5052881;28;20053;-76
2022/07/05 03:33:02;;;;;;;4.55;0.82;;;13.00;75.80;;;;;;5050445;28;20045;-77
2022/07/05 03:35:31;;;;;;;6.53;1.25;;;13.00;76.00;;;;;;5050461;28;20072;-77
2022/07/05 03:37:59;;;;;;;4.72;1.20;;;13.00;76.00;;;;;;5050241;28;20064;-77
2022/07/05 03:40:27;;;;;;;2.70;1.10;;;12.90;76.00;;;;;;5051412;28;20056;-77
2022/07/05 03:42:55;;;;;;;4.75;1.20;;;13.00;76.20;;;;;;5050165;28;20044;-77
2022/07/05 03:45:25;;;;;;;4.05;1.33;;;12.90;76.40;;;;;;5050203;28;20111;-77
2022/07/05 03:47:56;;;;;;;3.15;1.05;;;12.90;76.40;;;;;;5059169;28;20053;-77
2022/07/05 03:50:27;;;;;;;3.85;1.08;;;12.80;76.50;;;;;;5070091;28;20045;-77
2022/07/05 03:52:56;;;;;;;4.70;1.17;;;12.80;76.60;;;;;;5052914;28;20505;-77
2022/07/05 03:55:24;;;;;;;3.17;1.10;;;12.80;76.60;;;;;;5055422;28;20059;-77
2022/07/05 03:57:51;;;;;;;1.70;0.75;;;12.80;76.90;;;;;;5074109;28;20402;-77
2022/07/05 04:00:19;;;;;;;4.90;1.20;;;12.80;76.90;;;;;;5073958;28;20383;-77
2022/07/05 04:02:55;;;;;;;7.05;1.65;;;12.80;76.90;;;;;;5074170;28;20056;-77
2022/07/05 04:05:24;;;;;;;3.53;0.95;;;12.80;76.80;;;;;;5056596;28;20048;-77
2022/07/05 04:07:54;;;;;;;6.55;1.08;;;12.80;76.90;;;;;;5073728;28;20044;-77
2022/07/05 04:10:32;;;;;;;4.40;0.93;;;12.80;76.90;;;;;;5056801;28;20051;-77
2022/07/05 04:13:01;;;;;;;3.33;0.80;;;12.80;76.90;;;;;;5056306;28;20045;-77
2022/07/05 04:15:30;;;;;;;5.00;1.30;;;12.80;76.90;;;;;;5073351;28;20055;-77
2022/07/05 04:17:59;;;;;;;9.73;1.20;;;12.80;77.00;;;;;;5056782;28;20052;-77
2022/07/05 04:20:30;;;;;;;3.67;1.08;;;12.80;77.00;;;;;;5074601;28;20044;-77
2022/07/05 04:22:58;;;;;;;6.53;1.08;;;12.80;77.10;;;;;;5056552;28;20398;-77
2022/07/05 04:25:26;;;;;;;9.82;1.38;;;12.80;77.10;;;;;;5056649;28;20049;-77
2022/07/05 04:28:10;;;;;;;3.55;0.85;;;12.70;77.30;;;;;;5073461;28;20048;-78
2022/07/05 04:30:39;;;;;;;4.22;1.35;;;12.70;77.40;;;;;;5056438;28;20041;-78
2022/07/05 04:33:09;;;;;;;1.52;0.90;;;12.50;77.50;;;;;;5056271;28;20048;-78
2022/07/05 04:35:38;;;;;;;3.65;1.20;;;12.50;77.70;;;;;;5073287;28;20063;-78
2022/07/05 04:38:06;;;;;;;4.72;1.10;;;12.30;77.70;;;;;;5074386;28;20056;-78
2022/07/05 04:40:37;;;;;;;4.95;1.17;;;12.30;77.90;;;;;;5056437;28;20049;-79
2022/07/05 04:43:05;;;;;;;2.72;1.05;;;12.20;78.00;;;;;;5056617;28;20052;-78
2022/07/05 04:45:33;;;;;;;2.88;0.82;;;12.20;78.00;;;;;;5056166;28;20528;-78
2022/07/05 04:48:01;;;;;;;6.47;1.50;;;12.20;78.20;;;;;;5074181;28;20068;-77
2022/07/05 04:50:30;;;;;;;7.22;1.20;;;12.10;78.30;;;;;;5039559;28;20528;-77
2022/07/05 04:52:58;;;;;;;6.65;1.10;;;12.10;78.30;;;;;;5055681;28;20114;-76
2022/07/05 04:55:26;;;;;;;2.55;0.75;;;12.10;78.40;;;;;;5073385;28;20052;-77
2022/07/05 04:57:53;;;;;;;4.53;0.90;;;12.10;78.40;;;;;;5074041;28;20044;-76
2022/07/05 05:00:21;;;;;;;4.15;1.05;;;12.10;78.40;;;;;;5055916;28;20053;-77
2022/07/05 05:02:49;;;;;;;3.55;1.20;;;12.10;78.40;;;;;;5073917;28;20045;-77
2022/07/05 05:05:16;;;;;;;4.05;1.20;;;12.00;78.50;;;;;;5073464;28;20044;-77
2022/07/05 05:07:45;;;;;;;7.10;1.25;;;12.00;78.70;;;;;;5056051;28;20520;-77
2022/07/05 05:10:13;;;;;;;4.68;1.20;;;12.00;78.80;;;;;;5073579;28;20045;-77
2022/07/05 05:12:40;;;;;;;5.90;1.13;;;12.00;79.00;;;;;;5073655;28;20044;-77
2022/07/05 05:15:09;;;;;;;7.20;1.02;;;12.00;79.00;;;;;;5072634;28;20041;-77
2022/07/05 05:17:39;;;;;;;8.73;1.20;;;12.00;79.20;;;;;;5072720;28;20056;-77
2022/07/05 05:20:11;;;;;;;6.22;1.35;;;12.10;79.00;;;;;;5073598;28;20052;-77
2022/07/05 05:22:38;;;;;;;3.33;1.05;;;12.10;79.10;;;;;;5073599;28;20045;-77
2022/07/05 05:25:07;;;;;;;5.10;1.17;;;12.10;79.10;;;;;;5073687;28;20052;-77
2022/07/05 05:27:34;;;;;;;5.13;1.10;;;12.20;79.10;;;;;;5073599;28;20055;-77
2022/07/05 05:30:02;;;;;;;7.00;1.17;;;12.20;79.00;;;;;;5073233;28;20045;-77
2022/07/05 05:32:29;;;;;;;6.00;1.00;;;12.20;78.90;;;;;;5075261;28;20059;-77
2022/07/05 05:34:57;;;;;;;7.10;1.58;;;12.30;79.10;;;;;;5075614;28;20051;-76
2022/07/05 05:37:25;;;;;;;6.50;1.35;;;12.40;79.00;;;;;;5072770;28;20071;-76
2022/07/05 05:39:52;;;;;;;7.25;1.00;;;12.50;78.80;;;;;;5072696;28;20048;-76
2022/07/05 05:42:20;;;;;;;4.53;0.98;;;12.70;78.50;;;;;;5055107;28;20048;-77
2022/07/05 05:44:47;;;;;;;7.00;1.25;;;12.90;78.00;;;;;;5073187;28;20048;-77
2022/07/05 05:47:15;;;;;;;9.82;1.20;;;13.10;77.50;;;;;;5072876;28;20422;-76
2022/07/05 05:49:43;;;;;;;4.95;1.20;;;13.30;77.20;;;;;;5072899;28;20060;-76
2022/07/05 05:52:11;;;;;;;6.13;1.00;;;13.40;76.80;;;;;;5071958;28;20074;-77
2022/07/05 05:54:39;;;;;;;8.95;0.95;;;13.50;76.10;;;;;;5073078;28;20052;-77
2022/07/05 05:57:06;;;;;;;6.50;1.10;;;13.60;75.90;;;;;;5073099;28;20528;-77
2022/07/05 05:59:37;;;;;;;6.57;1.05;;;13.70;75.70;;;;;;5074489;28;20051;-77
2022/07/05 06:02:04;;;;;;;7.07;1.55;;;13.80;75.50;;;;;;5073075;28;20064;-77
2022/07/05 06:04:32;;;;;;;7.28;1.13;;;13.80;75.10;;;;;;5073766;28;20047;-77
2022/07/05 06:07:00;;;;;;;4.75;1.60;;;13.80;75.00;;;;;;5072866;28;20056;-77
2022/07/05 06:09:28;;;;;;;13.20;1.27;;;13.90;75.00;;;;;;5072356;28;20063;-77
2022/07/05 06:11:55;;;;;;;8.95;1.55;;;13.90;74.70;;;;;;5072774;28;20441;-78
2022/07/05 06:14:23;;;;;;;8.00;1.15;;;14.00;74.50;;;;;;5072979;28;20199;-77
2022/07/05 06:16:50;;;;;;;9.45;1.55;;;14.00;74.30;;;;;;5072442;28;20044;-77
2022/07/05 06:19:18;;;;;;;8.85;1.60;;;14.00;74.20;;;;;;5072377;28;20049;-77
2022/07/05 06:21:45;;;;;;;11.60;1.27;;;14.00;74.10;;;;;;5072429;28;20053;-77
2022/07/05 06:24:13;;;;;;;13.23;1.38;;;14.00;74.00;;;;;;5072518;28;20041;-77
2022/07/05 06:26:40;;;;;;;12.90;1.52;;;14.00;73.90;;;;;;5071533;28;20045;-77
2022/07/05 06:29:08;;;;;;;10.10;1.48;;;14.10;73.80;;;;;;5072420;28;20047;-77
2022/07/05 06:31:36;;;;;;;8.35;1.23;;;14.10;73.70;;;;;;5072363;28;20052;-77
2022/07/05 06:34:03;;;;;;;25.95;1.73;;;14.20;73.40;;;;;;5072355;28;20048;-77
2022/07/05 06:36:31;;;;;;;15.27;1.55;;;14.20;73.20;;;;;;5054400;28;20067;-77
2022/07/05 06:38:58;;;;;;;8.73;1.20;;;14.30;73.20;;;;;;5072139;28;20518;-77
2022/07/05 06:41:26;;;;;;;6.95;1.45;;;14.30;73.10;;;;;;5072082;28;20059;-78
2022/07/05 06:43:53;;;;;;;7.30;1.00;;;14.40;72.40;;;;;;5072150;28;20044;-77
2022/07/05 06:46:39;;;;;;;14.05;1.83;;;14.40;72.30;;;;;;5072232;28;20429;-78
2022/07/05 06:49:07;;;;;;;13.50;2.15;;;14.40;72.20;;;;;;5072020;28;20052;-78
2022/07/05 06:51:34;;;;;;;9.68;1.40;;;14.50;72.20;;;;;;5072004;28;20048;-77
2022/07/05 06:54:02;;;;;;;12.43;1.20;;;14.50;72.10;;;;;;5071972;28;20036;-77
2022/07/05 06:56:33;;;;;;;9.43;1.20;;;14.50;72.00;;;;;;5070845;28;20052;-77
2022/07/05 06:59:21;;;;;;;9.05;1.40;;;14.50;71.80;;;;;;5072103;28;20040;-77
2022/07/05 07:02:09;;;;;;;9.70;1.40;;;14.50;71.70;;;;;;5072045;28;20041;-77
2022/07/05 07:04:52;;;;;;;9.73;1.30;;;14.60;71.70;;;;;;5072209;28;20501;-77
2022/07/05 07:10:24;;;;;;;9.85;1.65;;;14.60;71.60;;;;;;5071782;28;20044;-77
2022/07/05 07:12:59;;;;;;;12.27;2.00;;;14.60;71.70;;;;;;5071942;28;20056;-77
2022/07/05 07:15:29;;;;;;;24.35;2.00;;;14.60;71.70;;;;;;5071888;28;20044;-78
2022/07/05 07:17:57;;;;;;;10.27;1.13;;;14.60;71.70;;;;;;5072322;28;20049;-77
2022/07/05 07:20:25;;;;;;;14.73;1.50;;;14.50;71.80;;;;;;5071596;28;20052;-77
2022/07/05 07:22:53;;;;;;;6.85;1.27;;;14.60;71.80;;;;;;5070790;28;20051;-77
2022/07/05 07:25:23;;;;;;;6.72;1.75;;;14.60;71.90;;;;;;5070090;28;20045;-77
2022/07/05 07:27:52;;;;;;;13.23;1.35;;;14.50;72.00;;;;;;5054086;28;20489;-77
2022/07/05 07:30:23;;;;;;;14.32;1.73;;;14.40;72.10;;;;;;5075605;28;20040;-77
2022/07/05 07:32:51;;;;;;;40.85;2.78;;;14.40;72.50;;;;;;5075386;28;20053;-77
2022/07/05 07:35:20;;;;;;;11.40;1.20;;;14.30;72.70;;;;;;5076035;28;20044;-77
2022/07/05 07:37:48;;;;;;;8.10;1.35;;;14.40;72.80;;;;;;5078268;28;20051;-77
2022/07/05 07:40:15;;;;;;;15.13;1.42;;;14.40;73.00;;;;;;5076301;28;20045;-77
2022/07/05 07:42:43;;;;;;;9.20;1.38;;;14.40;73.10;;;;;;5057745;28;20514;-77
2022/07/05 07:45:11;;;;;;;10.68;1.35;;;14.40;73.10;;;;;;5075629;28;20045;-77
2022/07/05 07:47:39;;;;;;;8.00;1.20;;;14.50;73.20;;;;;;5074517;28;20052;-77
2022/07/05 07:50:07;;;;;;;18.17;1.48;;;14.50;73.10;;;;;;5074668;28;20338;-78
2022/07/05 07:52:36;;;;;;;17.58;1.60;;;14.70;73.00;;;;;;5074362;28;20150;-78
2022/07/05 07:55:05;;;;;;;12.27;1.52;;;14.80;73.00;;;;;;5075487;28;20502;-78
2022/07/05 07:57:33;;;;;;;13.55;1.52;;;14.80;73.10;;;;;;5041212;28;20409;-77
2022/07/05 08:00:01;;;;;;;17.77;1.50;;;14.70;73.30;;;;;;5075297;28;20052;-78
2022/07/05 08:02:38;;;;;;;8.70;2.10;;;14.70;74.00;;;;;;5075269;28;20037;-78
2022/07/05 08:05:09;;;;;;;12.52;1.67;;;14.60;75.80;;;;;;5075166;28;20056;-78
2022/07/05 08:07:36;;;;;;;6.47;1.60;;;14.30;76.50;;;;;;5074105;28;20056;-79
2022/07/05 08:10:05;;;;;;;13.05;2.10;;;14.30;77.00;;;;;;5074644;28;20057;-78
2022/07/05 08:12:33;;;;;;;9.52;1.77;;;14.30;77.50;;;;;;5075163;28;20398;-78
2022/07/05 08:15:01;;;;;;;11.18;2.13;;;14.30;78.00;;;;;;5074161;28;20490;-78
2022/07/05 08:17:28;;;;;;;13.48;2.17;;;14.30;78.50;;;;;;5074063;28;20071;-78
2022/07/05 08:22:42;;;;;;;5.18;1.50;;;14.40;79.10;;;;;;5074921;28;20516;-78
2022/07/05 08:25:10;;;;;;;3.83;1.40;;;14.40;79.60;;;;;;5057076;28;20055;-77
2022/07/05 08:27:38;;;;;;;5.63;1.80;;;14.30;79.70;;;;;;5074875;28;20048;-77
2022/07/05 08:30:06;;;;;;;7.53;1.83;;;14.40;80.00;;;;;;5075290;28;20052;-79
2022/07/05 08:32:34;;;;;;;6.20;1.98;;;14.40;80.30;;;;;;5074667;28;20052;-79
2022/07/05 08:35:01;;;;;;;9.50;2.22;;;14.50;80.60;;;;;;5074978;28;20512;-77
2022/07/05 08:37:29;;;;;;;8.48;2.05;;;14.60;80.80;;;;;;5074625;28;20056;-77
2022/07/05 08:39:57;;;;;;;6.07;1.67;;;14.80;80.70;;;;;;5074243;28;20048;-78
2022/07/05 08:42:25;;;;;;;11.18;2.75;;;15.00;80.00;;;;;;5074651;28;20048;-77
2022/07/05 08:44:54;;;;;;;14.90;1.80;;;15.00;79.90;;;;;;5074158;28;20051;-77
2022/07/05 08:47:23;;;;;;;8.15;1.75;;;15.20;79.40;;;;;;5074600;28;20051;-77
2022/07/05 08:49:53;;;;;;;14.57;1.88;;;15.30;79.20;;;;;;5074642;28;20048;-77
2022/07/05 08:52:21;;;;;;;9.30;1.75;;;15.30;78.70;;;;;;5075737;28;20048;-78
2022/07/05 08:54:50;;;;;;;5.93;1.52;;;15.30;78.90;;;;;;5076931;28;20057;-77
2022/07/05 08:57:18;;;;;;;3.45;1.30;;;15.50;78.80;;;;;;5076543;28;20064;-77
2022/07/05 08:59:45;;;;;;;5.35;1.27;;;15.70;77.90;;;;;;5074485;28;20055;-77
2022/07/05 09:02:16;;;;;;;5.40;1.63;;;15.80;77.60;;;;;;5074488;28;20063;-77
2022/07/05 09:04:45;;;;;;;7.90;1.42;;;15.90;77.40;;;;;;5074384;28;20037;-78
2022/07/05 09:07:17;;;;;;;8.13;1.52;;;16.00;77.50;;;;;;5078907;28;20037;-78
2022/07/05 09:09:48;;;;;;;7.70;1.25;;;16.20;77.30;;;;;;5098576;28;20160;-78
2022/07/05 09:12:20;;;;;;;9.52;1.50;;;16.40;77.10;;;;;;5112636;28;20504;-77
2022/07/05 09:14:53;;;;;;;3.97;1.02;;;16.60;75.90;;;;;;5110393;28;20047;-79
2022/07/05 09:17:21;;;;;;;3.83;1.08;;;16.80;74.80;;;;;;5083984;28;20420;-79
2022/07/05 09:20:09;;;;;;;5.10;1.30;;;16.80;73.70;;;;;;5095256;28;20048;-79
2022/07/05 09:22:46;;;;;;;9.27;1.42;;;16.80;73.70;;;;;;5094578;28;20054;-78
2022/07/05 09:25:31;;;;;;;3.88;1.00;;;16.80;73.60;;;;;;5094318;28;20047;-79
2022/07/05 09:28:04;;;;;;;7.82;1.10;;;17.00;73.30;;;;;;5094002;28;20048;-79
2022/07/05 09:30:32;;;;;;;;;;;17.10;72.40;;;;;;5060138;28;20389;-79
2022/07/05 09:33:16;;;;;;;4.32;0.90;;;17.20;71.50;;;;;;5094028;28;19931;-79
2022/07/05 09:35:54;;;;;;;4.97;1.15;;;17.20;71.50;;;;;;5093828;28;20397;-79
2022/07/05 09:38:27;;;;;;;3.15;0.98;;;17.30;71.60;;;;;;5093823;28;20058;-79
2022/07/05 09:40:57;;;;;;;4.80;1.20;;;17.40;71.10;;;;;;5096159;28;20052;-78
2022/07/05 09:43:27;;;;;;;6.63;1.02;;;17.50;71.30;;;;;;5096840;28;20429;-78
2022/07/05 09:46:01;;;;;;;2.95;0.88;;;17.70;70.50;;;;;;5098213;28;20048;-77
2022/07/05 09:48:29;;;;;;;;;;;17.70;70.40;;;;;;5113312;28;20515;-78
2022/07/05 09:51:16;;;;;;;1.35;0.68;;;17.60;70.30;;;;;;5114167;28;19923;-78
2022/07/05 09:54:04;;;;;;;2.72;0.75;;;17.70;70.30;;;;;;5113332;28;20060;-78
2022/07/05 09:56:47;;;;;;;28.50;1.85;;;17.50;69.90;;;;;;5113795;28;20413;-78
2022/07/05 09:59:18;;;;;;;12.45;1.00;;;17.30;70.50;;;;;;5113429;28;20489;-78
2022/07/05 10:01:47;;;;;;;15.13;1.10;;;17.20;70.90;;;;;;5111964;28;20052;-78
2022/07/05 10:04:15;;;;;;;4.30;0.70;;;17.10;71.20;;;;;;5113495;28;20039;-78
2022/07/05 10:06:43;;;;;;;25.25;1.83;;;17.10;71.60;;;;;;5112807;28;20051;-78
2022/07/05 10:09:11;;;;;;;4.45;1.00;;;17.30;71.80;;;;;;5113676;28;20473;-78
2022/07/05 10:11:41;;;;;;;1.25;0.68;;;17.20;71.80;;;;;;5113486;28;20702;-78
2022/07/05 10:14:18;;;;;;;1.42;0.85;;;17.00;72.50;;;;;;5113788;28;20048;-79
2022/07/05 10:16:52;;;;;;;5.38;1.38;;;16.80;73.50;;;;;;5093822;28;20052;-77
2022/07/05 10:19:21;;;;;;;5.10;1.02;;;16.60;74.30;;;;;;5092878;28;20042;-78
2022/07/05 10:21:50;;;;;;;5.80;1.17;;;16.50;74.90;;;;;;5093222;28;20478;-78
2022/07/05 10:24:40;;;;;;;2.78;1.52;;;16.40;75.40;;;;;;5092765;28;20044;-78
2022/07/05 10:27:08;;;;;;;2.95;0.90;;;16.40;75.80;;;;;;5104510;28;20043;-78
2022/07/05 10:29:37;;;;;;;7.20;1.65;;;16.30;76.20;;;;;;5112890;28;20481;-77
2022/07/05 10:32:10;;;;;;;7.50;1.50;;;16.40;76.70;;;;;;5112537;28;20051;-78
2022/07/05 10:34:39;;;;;;;0.88;0.60;;;16.60;77.20;;;;;;5112039;28;20051;-77
2022/07/05 10:37:30;;;;;;;3.25;0.88;;;16.80;76.80;;;;;;5111161;28;20040;-78
2022/07/05 10:40:01;;;;;;;2.13;0.80;;;16.80;76.80;;;;;;5112056;28;20074;-78
2022/07/05 10:42:34;;;;;;;0.73;0.63;;;16.80;77.00;;;;;;5113017;28;20397;-78
2022/07/05 10:45:03;;;;;;;1.67;0.90;;;16.80;76.80;;;;;;5094522;28;20059;-78
2022/07/05 10:47:32;;;;;;;2.22;0.90;;;16.90;77.20;;;;;;5112308;28;20416;-78
2022/07/05 10:50:04;;;;;;;3.40;0.80;;;17.10;77.40;;;;;;5112448;28;20062;-78
2022/07/05 10:55:22;;;;;;;2.28;1.30;;;17.50;76.30;;;;;;5176988;22;20072;-78
2022/07/05 10:58:27;;;;;;;2.17;1.80;;;17.80;76.10;;;;;;5013848;28;20046;-77
2022/07/05 11:01:19;;;;;;;2.83;2.63;;;18.30;75.10;;;;;;5013567;28;20080;-78
2022/07/05 11:03:55;;;;;;;3.90;2.42;;;18.60;74.10;;;;;;5028350;28;20053;-78
2022/07/05 11:06:28;;;;;;;4.95;2.70;;;18.60;73.10;;;;;;5013558;28;20073;-78
2022/07/05 11:08:59;;;;;;;2.38;2.17;;;18.40;72.90;;;;;;5013384;28;20061;-78
2022/07/05 11:11:28;;;;;;;8.23;2.50;;;18.20;73.30;;;;;;5013152;28;20410;-77
2022/07/05 11:13:58;;;;;;;3.78;3.00;;;17.80;73.80;;;;;;5012621;28;20422;-76
2022/07/05 11:16:31;;;;;;;8.07;4.20;;;17.40;74.40;;;;;;5012807;28;20049;-76
2022/07/05 11:19:10;;;;;;;5.32;4.03;;;17.00;76.00;;;;;;5012963;28;20057;-76
2022/07/05 11:21:58;;;;;;;4.80;3.15;;;16.90;77.10;;;;;;5012569;28;20050;-76
2022/07/05 11:24:29;;;;;;;3.88;2.60;;;17.20;77.60;;;;;;5011555;28;20058;-76
2022/07/05 11:26:59;;;;;;;3.47;2.33;;;17.40;77.10;;;;;;5011338;28;20396;-76
2022/07/05 11:29:53;;;;;;;5.55;2.13;;;17.60;76.10;;;;;;5012550;28;20054;-75
2022/07/05 11:32:36;;;;;;;1.88;1.55;;;17.50;75.80;;;;;;5020701;28;20049;-76
2022/07/05 11:35:18;;;;;;;2.42;1.80;;;17.80;75.60;;;;;;5012521;28;20056;-76
2022/07/05 11:38:09;;;;;;;2.28;1.70;;;18.20;74.50;;;;;;5012045;28;20054;-77
2022/07/05 11:40:53;;;;;;;1.52;1.30;;;18.40;73.20;;;;;;5012698;28;20410;-76
2022/07/05 11:43:28;;;;;;;1.75;1.30;;;18.40;72.90;;;;;;5012439;28;20045;-76
2022/07/05 11:45:59;;;;;;;1.48;1.00;;;18.30;72.00;;;;;;5016652;28;20058;-76
2022/07/05 11:48:29;;;;;;;5.35;2.05;;;18.00;71.10;;;;;;5020471;28;20052;-77
2022/07/05 11:50:57;;;;;;;1.58;0.80;;;17.80;71.60;;;;;;5012509;28;20046;-78
2022/07/05 11:53:27;;;;;;;0.93;0.50;;;18.10;71.80;;;;;;5012514;28;20395;-77
2022/07/05 11:56:15;;;;;;;1.10;0.70;;;18.40;70.90;;;;;;5012484;28;20038;-76
2022/07/05 11:58:42;;;;;;;1.30;1.10;;;18.70;69.10;;;;;;5012773;28;20056;-78
2022/07/05 12:01:10;;;;;;;1.80;1.40;;;18.90;69.20;;;;;;5011782;28;20046;-76
2022/07/05 12:03:41;;;;;;;2.20;1.20;;;19.30;68.30;;;;;;5012747;28;20403;-77
2022/07/05 12:06:13;;;;;;;1.77;1.00;;;19.80;66.90;;;;;;5011329;28;20045;-77
2022/07/05 12:08:41;;;;;;;1.67;0.60;;;20.00;64.90;;;;;;5011589;28;20037;-78
2022/07/05 12:13:58;;;;;;;1.70;0.70;;;19.60;63.80;;;;;;5012471;28;20046;-77
2022/07/05 12:16:26;;;;;;;1.92;1.30;;;19.40;64.30;;;;;;5013232;28;20060;-77
2022/07/05 12:18:56;;;;;;;2.13;1.35;;;19.40;64.50;;;;;;5014659;28;20057;-77
2022/07/05 12:21:24;;;;;;;3.63;1.17;;;19.50;63.80;;;;;;5014836;28;20038;-77
2022/07/05 12:23:52;;;;;;;2.85;0.85;;;19.50;63.40;;;;;;5013143;28;20495;-77
2022/07/05 12:26:21;;;;;;;0.40;0.40;;;19.60;62.40;;;;;;5015168;28;20058;-78
2022/07/05 12:28:50;;;;;;;1.08;0.32;;;19.80;60.90;;;;;;5015035;28;20053;-77
2022/07/05 12:31:22;;;;;;;1.10;0.22;;;20.20;60.30;;;;;;5015133;28;20491;-78
2022/07/05 12:33:51;;;;;;;0.95;0.20;;;20.30;58.90;;;;;;5015788;28;20050;-77
2022/07/05 12:36:25;;;;;;;1.60;0.30;;;20.30;57.70;;;;;;5014678;28;20068;-78
2022/07/05 12:38:59;;;;;;;0.45;0.20;;;20.30;56.50;;;;;;5014894;28;20050;-78
2022/07/05 12:41:27;;;;;;;0.57;0.30;;;20.20;54.40;;;;;;5014082;28;20049;-78
2022/07/05 12:43:58;;;;;;;3.30;0.43;;;20.20;55.70;;;;;;4996734;28;20459;-78
2022/07/05 12:46:40;;;;;;;1.58;0.30;;;20.40;55.60;;;;;;5013473;28;20046;-78
2022/07/05 12:49:10;;;;;;;1.38;0.20;;;20.60;54.60;;;;;;5014174;28;20053;-79
2022/07/05 12:51:40;;;;;;;1.05;0.20;;;20.50;54.60;;;;;;5014393;28;20583;-78
2022/07/05 12:58:15;;;;;;;2.25;0.50;;;20.90;53.60;;;;;;5014841;28;20037;-78
2022/07/05 13:00:15;;;;;;;1.52;0.70;;;21.30;52.30;;;;;;5010664;28;20058;-78
2022/07/05 13:02:46;;;;;;;2.90;0.52;;;21.10;52.10;;;;;;4997751;28;20395;-79
2022/07/05 13:05:22;;;;;;;0.70;0.40;;;21.20;51.70;;;;;;5014817;28;20046;-78
2022/07/05 13:07:52;;;;;;;1.65;0.70;;;21.60;50.90;;;;;;5014246;28;20042;-78
2022/07/05 13:10:36;;;;;;;0.52;0.50;;;21.80;49.30;;;;;;5015396;28;20049;-77
2022/07/05 13:13:07;;;;;;;0.77;0.47;;;22.00;48.30;;;;;;5024277;28;20046;-78
2022/07/05 13:15:39;;;;;;;0.82;0.40;;;22.30;48.10;;;;;;5021609;28;20056;-79
2022/07/05 13:18:07;;;;;;;0.93;0.40;;;22.70;47.30;;;;;;5016116;28;20056;-78
2022/07/05 13:20:35;;;;;;;1.40;0.20;;;22.90;46.80;;;;;;5014623;28;20049;-78